createdAt,value
2022-08-21T00:00:29.844Z,2.42
2022-08-21T00:03:31.952Z,1.83
2022-08-21T00:09:36.404Z,1.90
2022-08-21T00:12:39.861Z,1.70
2022-08-21T00:15:43.079Z,1.88
2022-08-21T00:18:45.298Z,1.65
2022-08-21T00:21:49.503Z,1.50
2022-08-21T00:24:51.519Z,2.08
2022-08-21T00:27:55.193Z,1.88
2022-08-21T00:30:58.629Z,1.80
2022-08-21T00:34:00.969Z,1.52
2022-08-21T00:37:03.409Z,2.05
2022-08-21T00:40:13.600Z,1.95
2022-08-21T00:43:18.762Z,2.13
2022-08-21T00:46:20.949Z,1.70
2022-08-21T00:49:25.097Z,2.40
2022-08-21T00:55:33.664Z,1.77
2022-08-21T00:58:38.442Z,2.13
2022-08-21T01:01:40.511Z,2.00
2022-08-21T01:04:42.575Z,2.40
2022-08-21T01:07:44.902Z,2.08
2022-08-21T01:10:48.520Z,2.58
2022-08-21T01:14:00.794Z,1.90
2022-08-21T01:17:06.651Z,2.13
2022-08-21T01:20:10.945Z,2.40
2022-08-21T01:23:13.141Z,2.35
2022-08-21T01:26:17.990Z,2.10
2022-08-21T01:29:55.223Z,2.65
2022-08-21T01:32:58.879Z,2.20
2022-08-21T01:36:01.303Z,2.38
2022-08-21T01:42:06.924Z,1.90
2022-08-21T01:45:11.606Z,2.45
2022-08-21T01:48:13.811Z,2.80
2022-08-21T01:54:17.807Z,1.90
2022-08-21T01:57:19.707Z,1.90
2022-08-21T02:00:22.821Z,2.22
2022-08-21T02:03:35.245Z,2.17
2022-08-21T02:06:38.718Z,2.35
2022-08-21T02:09:40.644Z,1.98
2022-08-21T02:12:42.544Z,2.35
2022-08-21T02:15:44.564Z,2.13
2022-08-21T02:18:46.876Z,2.45
2022-08-21T02:21:48.810Z,2.58
2022-08-21T02:24:54.994Z,2.33
2022-08-21T02:27:58.683Z,2.00
2022-08-21T02:31:01.420Z,2.28
2022-08-21T02:34:03.374Z,2.40
2022-08-21T02:37:05.851Z,2.38
2022-08-21T02:43:10.196Z,2.13
2022-08-21T02:46:17.247Z,2.45
2022-08-21T02:49:19.203Z,2.13
2022-08-21T02:52:21.138Z,2.13
2022-08-21T02:55:29.435Z,1.98
2022-08-21T02:58:35.322Z,2.25
2022-08-21T03:01:37.342Z,2.00
2022-08-21T03:04:46.568Z,2.55
2022-08-21T03:07:49.873Z,2.20
2022-08-21T03:10:54.102Z,2.20
2022-08-21T03:13:56.061Z,2.10
2022-08-21T03:16:58.005Z,1.88
2022-08-21T03:20:00.131Z,2.42
2022-08-21T03:23:03.697Z,2.45
2022-08-21T03:26:08.704Z,2.15
2022-08-21T03:29:11.292Z,2.30
2022-08-21T03:35:16.019Z,3.08
2022-08-21T03:38:17.980Z,2.35
2022-08-21T03:41:22.280Z,2.35
2022-08-21T03:44:24.347Z,2.50
2022-08-21T03:47:26.502Z,2.50
2022-08-21T03:50:32.411Z,2.78
2022-08-21T03:53:37.626Z,2.38
2022-08-21T03:56:39.691Z,1.95
2022-08-21T03:59:41.577Z,2.47
2022-08-21T04:02:44.137Z,2.35
2022-08-21T04:05:46.693Z,2.42
2022-08-21T04:08:48.681Z,2.42
2022-08-21T04:11:50.668Z,2.50
2022-08-21T04:14:52.550Z,2.72
2022-08-21T04:17:54.674Z,2.90
2022-08-21T04:20:59.438Z,2.60
2022-08-21T04:24:01.364Z,2.55
2022-08-21T04:27:03.293Z,2.58
2022-08-21T04:30:06.025Z,2.60
2022-08-21T04:33:08.072Z,2.25
2022-08-21T04:36:10.263Z,2.83
2022-08-21T04:39:12.467Z,2.40
2022-08-21T04:42:14.627Z,2.28
2022-08-21T04:45:18.895Z,2.30
2022-08-21T04:48:23.524Z,2.67
2022-08-21T04:51:33.659Z,2.60
2022-08-21T04:54:35.578Z,3.03
2022-08-21T04:57:48.361Z,2.97
2022-08-21T05:00:54.149Z,2.38
2022-08-21T05:03:59.290Z,2.72
2022-08-21T05:07:05.218Z,2.50
2022-08-21T05:10:08.079Z,2.40
2022-08-21T05:13:10.348Z,2.20
2022-08-21T05:19:14.830Z,2.58
2022-08-21T05:22:22.524Z,2.97
2022-08-21T05:25:24.706Z,2.53
2022-08-21T05:28:26.870Z,2.55
2022-08-21T05:31:28.993Z,2.70
2022-08-21T05:34:31.200Z,2.80
2022-08-21T05:37:33.512Z,2.45
2022-08-21T05:40:35.601Z,2.75
2022-08-21T05:46:40.275Z,2.70
2022-08-21T05:55:58.156Z,2.42
2022-08-21T05:59:00.226Z,2.50
2022-08-21T06:02:05.722Z,3.33
2022-08-21T06:05:08.465Z,3.20
2022-08-21T06:08:10.900Z,2.45
2022-08-21T06:11:12.915Z,2.63
2022-08-21T06:14:16.204Z,3.05
2022-08-21T06:17:19.498Z,2.70
2022-08-21T06:20:22.801Z,2.65
2022-08-21T06:23:33.346Z,2.72
2022-08-21T06:26:35.537Z,2.63
2022-08-21T06:32:46.789Z,2.53
2022-08-21T06:35:49.748Z,2.97
2022-08-21T06:38:52.523Z,3.03
2022-08-21T06:41:54.547Z,2.20
2022-08-21T06:45:03.349Z,2.42
2022-08-21T06:48:07.775Z,2.10
2022-08-21T06:51:12.914Z,2.08
2022-08-21T06:54:15.029Z,2.00
2022-08-21T06:57:17.162Z,2.22
2022-08-21T07:00:19.213Z,2.15
2022-08-21T07:03:30.461Z,2.47
2022-08-21T07:06:34.019Z,2.20
2022-08-21T07:09:37.038Z,2.20
2022-08-21T07:12:39.092Z,2.35
2022-08-21T07:15:41.437Z,2.20
2022-08-21T07:18:43.524Z,2.60
2022-08-21T07:21:45.985Z,2.30
2022-08-21T07:24:48.302Z,2.50
2022-08-21T07:27:50.382Z,2.03
2022-08-21T07:30:55.951Z,2.35
2022-08-21T07:33:58.144Z,2.00
2022-08-21T07:37:00.151Z,2.08
2022-08-21T07:40:09.153Z,2.55
2022-08-21T07:43:11.122Z,2.55
2022-08-21T07:46:14.504Z,2.53
2022-08-21T07:49:16.511Z,2.42
2022-08-21T07:52:20.906Z,2.20
2022-08-21T07:55:23.610Z,2.22
2022-08-21T07:58:25.760Z,2.28
2022-08-21T08:01:27.818Z,2.42
2022-08-21T08:04:29.903Z,2.20
2022-08-21T08:07:32.032Z,2.17
2022-08-21T08:10:34.498Z,2.60
2022-08-21T08:13:41.676Z,2.40
2022-08-21T08:16:43.765Z,2.95
2022-08-21T08:19:45.986Z,2.40
2022-08-21T08:22:48.623Z,2.20
2022-08-21T08:25:52.432Z,2.63
2022-08-21T08:28:54.411Z,2.40
2022-08-21T08:31:56.474Z,2.47
2022-08-21T08:34:59.323Z,2.53
2022-08-21T08:38:01.997Z,2.17
2022-08-21T08:41:14.184Z,2.38
2022-08-21T08:44:16.232Z,2.33
2022-08-21T08:47:19.627Z,2.45
2022-08-21T08:50:27.438Z,2.45
2022-08-21T08:53:48.387Z,2.13
2022-08-21T08:56:50.577Z,2.53
2022-08-21T08:59:56.488Z,2.63
2022-08-21T09:03:01.093Z,2.53
2022-08-21T09:06:17.753Z,2.70
2022-08-21T09:09:43.682Z,2.55
2022-08-21T09:12:56.948Z,2.47
2022-08-21T09:16:04.990Z,2.45
2022-08-21T09:19:12.042Z,2.35
2022-08-21T09:22:51.866Z,2.83
2022-08-21T09:26:06.615Z,2.40
2022-08-21T09:29:12.915Z,2.72
2022-08-21T09:32:21.057Z,2.40
2022-08-21T09:35:24.590Z,2.33
2022-08-21T09:38:33.794Z,2.60
2022-08-21T09:41:37.906Z,2.50
2022-08-21T09:44:42.117Z,2.10
2022-08-21T09:47:44.789Z,2.22
2022-08-21T09:50:48.630Z,2.10
2022-08-21T09:54:13.848Z,2.50
2022-08-21T09:57:31.140Z,2.30
2022-08-21T10:00:35.723Z,2.60
2022-08-21T10:03:39.246Z,2.10
2022-08-21T10:06:41.981Z,2.58
2022-08-21T10:09:43.965Z,2.75
2022-08-21T10:13:10.591Z,2.72
2022-08-21T10:16:31.880Z,2.40
2022-08-21T10:19:41.730Z,2.65
2022-08-21T10:23:22.151Z,2.33
2022-08-21T10:26:56.575Z,2.78
2022-08-21T10:30:20.576Z,2.78
2022-08-21T10:33:46.487Z,2.83
2022-08-21T10:36:58.936Z,2.58
2022-08-21T10:40:41.637Z,2.30
2022-08-21T10:43:49.686Z,2.30
2022-08-21T10:46:51.826Z,2.15
2022-08-21T11:03:47.184Z,2.58
2022-08-21T11:06:58.311Z,2.15
2022-08-21T11:10:15.768Z,2.42
2022-08-21T11:13:31.225Z,2.38
2022-08-21T11:16:45.195Z,2.65
2022-08-21T11:19:55.862Z,2.30
2022-08-21T11:23:05.595Z,2.50
2022-08-21T11:26:18.800Z,2.40
2022-08-21T11:29:41.221Z,2.20
2022-08-21T11:33:07.427Z,1.63
2022-08-21T11:36:16.302Z,1.98
2022-08-21T11:39:27.710Z,2.00
2022-08-21T11:42:58.750Z,2.20
2022-08-21T11:46:24.612Z,1.85
2022-08-21T11:49:54.091Z,2.22
2022-08-21T11:53:12.785Z,2.20
2022-08-21T11:56:36.799Z,2.15
2022-08-21T11:59:47.855Z,1.70
2022-08-21T12:02:55.512Z,2.25
2022-08-21T12:06:07.617Z,2.13
2022-08-21T12:09:31.771Z,2.28
2022-08-21T12:12:38.387Z,2.20
2022-08-21T12:15:40.948Z,2.00
2022-08-21T12:18:44.152Z,2.00
2022-08-21T12:21:58.196Z,1.98
2022-08-21T12:25:08.392Z,2.05
2022-08-21T12:28:16.181Z,2.00
2022-08-21T12:31:21.091Z,2.33
2022-08-21T12:34:27.264Z,2.25
2022-08-21T12:37:46.917Z,2.58
2022-08-21T12:41:07.651Z,2.50
2022-08-21T12:44:16.367Z,2.20
2022-08-21T12:47:38.616Z,1.98
2022-08-21T12:50:51.773Z,2.10
2022-08-21T12:53:59.628Z,2.05
2022-08-21T12:57:04.411Z,2.05
2022-08-21T13:00:09.526Z,2.40
2022-08-21T13:03:14.801Z,2.40
2022-08-21T13:06:19.781Z,2.55
2022-08-21T13:09:26.697Z,2.08
2022-08-21T13:12:32.575Z,2.20
2022-08-21T13:15:37.092Z,2.08
2022-08-21T13:18:54.906Z,2.00
2022-08-21T13:21:58.514Z,2.05
2022-08-21T13:25:00.372Z,2.00
2022-08-21T13:28:11.728Z,2.17
2022-08-21T13:31:14.312Z,2.58
2022-08-21T13:34:17.861Z,1.83
2022-08-21T13:37:21.593Z,2.20
2022-08-21T13:40:39.618Z,2.15
2022-08-21T13:43:47.217Z,2.38
2022-08-21T13:46:50.827Z,2.10
2022-08-21T13:49:58.994Z,2.05
2022-08-21T13:53:08.655Z,2.25
2022-08-21T13:56:10.699Z,2.00
2022-08-21T13:59:13.367Z,2.22
2022-08-21T14:02:19.367Z,2.35
2022-08-21T14:05:29.401Z,2.28
2022-08-21T14:08:36.964Z,2.03
2022-08-21T14:11:39.390Z,2.20
2022-08-21T14:14:41.899Z,2.05
2022-08-21T14:17:45.209Z,2.25
2022-08-21T14:20:47.482Z,2.50
2022-08-21T14:23:59.622Z,2.78
2022-08-21T14:27:07.778Z,2.10
2022-08-21T14:30:23.021Z,1.75
2022-08-21T14:33:34.774Z,2.22
2022-08-21T14:36:36.686Z,1.83
2022-08-21T14:39:41.459Z,2.45
2022-08-21T14:42:46.313Z,1.83
2022-08-21T14:45:48.559Z,1.95
2022-08-21T14:48:50.477Z,1.95
2022-08-21T14:51:54.094Z,1.98
2022-08-21T14:54:56.562Z,1.90
2022-08-21T14:58:01.438Z,1.80
2022-08-21T15:01:04.199Z,2.30
2022-08-21T15:04:06.170Z,2.05
2022-08-21T15:07:08.331Z,2.30
2022-08-21T15:10:10.407Z,2.15
2022-08-21T15:13:12.803Z,1.88
2022-08-21T15:16:14.883Z,1.83
2022-08-21T15:19:16.857Z,2.30
2022-08-21T15:22:27.772Z,1.90
2022-08-21T15:25:30.257Z,2.10
2022-08-21T15:28:32.861Z,2.00
2022-08-21T15:31:35.331Z,2.33
2022-08-21T15:34:37.348Z,2.00
2022-08-21T15:37:39.282Z,1.77
2022-08-21T15:40:51.677Z,1.77
2022-08-21T15:43:54.487Z,1.90
2022-08-21T15:46:57.428Z,1.98
2022-08-21T15:50:02.435Z,1.90
2022-08-21T15:53:04.344Z,1.70
2022-08-21T15:56:11.867Z,1.92
2022-08-21T15:59:18.416Z,2.17
2022-08-21T16:02:25.847Z,1.70
2022-08-21T16:08:29.861Z,2.08
2022-08-21T16:11:31.878Z,2.00
2022-08-21T16:14:36.044Z,2.08
2022-08-21T16:17:40.358Z,2.03
2022-08-21T16:20:43.361Z,1.95
2022-08-21T16:23:45.270Z,2.10
2022-08-21T16:26:57.896Z,2.03
2022-08-21T16:30:01.040Z,2.13
2022-08-21T16:33:05.249Z,2.22
2022-08-21T16:36:08.791Z,1.95
2022-08-21T16:39:10.904Z,2.15
2022-08-21T16:42:17.888Z,1.95
2022-08-21T16:45:24.657Z,2.28
2022-08-21T16:48:28.872Z,2.03
2022-08-21T16:51:30.867Z,2.17
2022-08-21T16:54:33.125Z,1.92
2022-08-21T16:57:35.614Z,1.90
2022-08-21T17:00:37.751Z,1.83
2022-08-21T17:03:43.297Z,1.80
2022-08-21T17:06:45.165Z,1.63
2022-08-21T17:09:47.165Z,2.00
2022-08-21T17:12:57.400Z,2.22
2022-08-21T17:15:59.628Z,1.63
2022-08-21T17:19:01.566Z,1.88
2022-08-21T17:22:04.290Z,1.80
2022-08-21T17:25:09.149Z,2.10
2022-08-21T17:28:23.240Z,2.25
2022-08-21T17:31:25.269Z,2.28
2022-08-21T17:34:31.150Z,1.95
2022-08-21T17:37:33.765Z,2.53
2022-08-21T17:40:36.412Z,2.03
2022-08-21T17:43:41.548Z,1.85
2022-08-21T17:46:43.486Z,2.00
2022-08-21T17:49:45.495Z,2.80
2022-08-21T17:52:47.462Z,2.90
2022-08-21T17:55:51.245Z,4.72
2022-08-21T17:58:53.433Z,3.33
2022-08-21T18:01:55.624Z,2.58
2022-08-21T18:04:57.510Z,2.60
2022-08-21T18:07:59.638Z,2.10
2022-08-21T18:11:01.902Z,2.55
2022-08-21T18:14:07.807Z,2.03
2022-08-21T18:17:13.165Z,2.55
2022-08-21T18:20:18.762Z,2.53
2022-08-21T18:23:20.989Z,2.25
2022-08-21T18:26:43.592Z,2.72
2022-08-21T18:29:47.342Z,2.05
2022-08-21T18:32:52.532Z,2.72
2022-08-21T18:35:54.744Z,3.03
2022-08-21T18:39:08.900Z,2.22
2022-08-21T18:42:19.847Z,2.55
2022-08-21T18:45:30.464Z,2.53
2022-08-21T18:48:32.941Z,2.28
2022-08-21T18:51:34.946Z,2.53
2022-08-21T18:54:37.344Z,2.40
2022-08-21T18:57:46.554Z,2.10
2022-08-21T19:00:50.769Z,2.20
2022-08-21T19:03:53.290Z,2.40
2022-08-21T19:06:55.265Z,2.30
2022-08-21T19:10:23.084Z,2.25
2022-08-21T19:13:21.495Z,2.50
2022-08-21T19:16:23.571Z,2.60
2022-08-21T19:19:26.111Z,2.30
2022-08-21T19:22:28.530Z,2.63
2022-08-21T19:25:33.813Z,3.03
2022-08-21T19:28:39.418Z,2.38
2022-08-21T19:31:44.660Z,2.58
2022-08-21T19:34:46.854Z,2.60
2022-08-21T19:37:48.991Z,2.38
2022-08-21T19:40:52.280Z,2.30
2022-08-21T19:43:59.082Z,2.38
2022-08-21T19:47:05.864Z,2.35
2022-08-21T19:50:13.245Z,2.88
2022-08-21T19:53:20.943Z,2.40
2022-08-21T19:56:25.893Z,3.10
2022-08-21T19:59:28.308Z,2.75
2022-08-21T20:02:30.562Z,2.75
2022-08-21T20:08:55.377Z,3.15
2022-08-21T20:12:06.362Z,2.85
2022-08-21T20:15:11.350Z,2.70
2022-08-21T20:18:13.540Z,2.67
2022-08-21T20:21:18.063Z,2.80
2022-08-21T20:24:20.116Z,2.90
2022-08-21T20:27:24.209Z,3.20
2022-08-21T20:30:26.454Z,4.10
2022-08-21T20:33:28.501Z,4.07
2022-08-21T20:36:30.795Z,4.00
2022-08-21T20:39:32.866Z,3.75
2022-08-21T20:42:35.468Z,4.00
2022-08-21T20:45:38.966Z,3.75
2022-08-21T20:48:49.367Z,3.13
2022-08-21T20:51:53.188Z,3.72
2022-08-21T20:55:10.981Z,3.47
2022-08-21T21:05:06.378Z,3.10
2022-08-21T21:08:09.502Z,3.75
2022-08-21T21:11:28.897Z,6.13
2022-08-21T21:14:41.894Z,5.45
2022-08-21T21:18:07.162Z,5.03
2022-08-21T21:21:43.742Z,4.70
2022-08-21T21:25:39.773Z,5.38
2022-08-21T21:28:56.546Z,4.53
2022-08-21T21:31:59.558Z,3.72
2022-08-21T21:35:05.678Z,3.45
2022-08-21T21:38:31.614Z,3.90
2022-08-21T21:41:54.199Z,4.30
2022-08-21T21:45:32.006Z,4.43
2022-08-21T21:49:00.254Z,3.80
2022-08-21T21:52:24.971Z,3.20
2022-08-21T21:55:46.154Z,3.35
2022-08-21T21:59:08.325Z,3.63
2022-08-21T22:02:45.170Z,3.72
2022-08-21T22:05:47.187Z,3.42
2022-08-21T22:09:02.446Z,3.53
2022-08-21T22:12:33.511Z,3.53
2022-08-21T22:15:54.688Z,3.08
2022-08-21T22:19:13.747Z,4.03
2022-08-21T22:22:20.375Z,4.00
2022-08-21T22:25:28.442Z,3.47
2022-08-21T22:28:35.466Z,4.05
2022-08-21T22:35:25.354Z,3.10
2022-08-21T22:38:39.569Z,3.38
2022-08-21T22:41:45.321Z,3.05
2022-08-21T22:44:57.673Z,4.00
2022-08-21T22:51:42.077Z,2.90
2022-08-21T22:54:45.372Z,3.17
2022-08-21T22:57:47.883Z,3.67
2022-08-21T23:01:00.225Z,3.05
2022-08-21T23:04:20.149Z,2.67
2022-08-21T23:07:42.972Z,2.97
2022-08-21T23:10:47.348Z,3.22
2022-08-21T23:13:52.886Z,3.00
2022-08-21T23:17:17.087Z,3.00
2022-08-21T23:20:33.327Z,2.83
2022-08-21T23:23:48.819Z,3.00
2022-08-21T23:27:02.773Z,2.72
2022-08-21T23:30:21.895Z,2.80
2022-08-21T23:33:23.847Z,3.25
2022-08-21T23:36:38.089Z,2.88
2022-08-21T23:39:58.437Z,2.95
2022-08-21T23:43:11.140Z,2.63
2022-08-21T23:46:34.158Z,2.85
2022-08-21T23:49:55.441Z,2.67
2022-08-21T23:53:24.060Z,2.25
2022-08-21T23:56:50.670Z,2.60
